Time;durP1;ratioP1;P1;durP2;ratioP2;P2;SDS_P1;SDS_P2;PMS_P1;PMS_P2;Temp;Humidity;BMP_temperature;BMP_pressure;BME280_temperature;BME280_humidity;BME280_pressure;Samples;Min_cycle;Max_cycle;Signal;HPM_P1;HPM_P2
2022/10/11 00:00:58;;;;;;;15.23;10.65;;;;;;;13.93;62.36;95474.16;5052700;28;20075;-73
2022/10/11 00:03:24;;;;;;;14.55;10.25;;;;;;;13.85;62.98;95476.59;5052546;28;20028;-72
2022/10/11 00:05:49;;;;;;;13.57;10.10;;;;;;;13.93;62.75;95481.13;5059920;28;20036;-72
2022/10/11 00:08:15;;;;;;;14.13;10.27;;;;;;;13.92;62.69;95476.88;5074719;28;20044;-72
2022/10/11 00:10:40;;;;;;;11.68;10.30;;;;;;;13.92;63.13;95485.53;5037439;28;20456;-72
2022/10/11 00:13:06;;;;;;;12.23;10.63;;;;;;;13.89;62.84;95477.97;5050982;28;20029;-72
2022/10/11 00:15:31;;;;;;;16.88;11.75;;;;;;;13.85;63.13;95481.81;5040514;28;20040;-72
2022/10/11 00:17:57;;;;;;;13.18;11.18;;;;;;;13.86;62.94;95486.06;5069273;28;20063;-72
2022/10/11 00:20:22;;;;;;;14.55;11.15;;;;;;;13.82;63.23;95480.28;5050738;28;20051;-72
2022/10/11 00:22:48;;;;;;;12.77;10.80;;;;;;;13.79;63.22;95477.94;5067034;28;20028;-72
2022/10/11 00:25:14;;;;;;;16.60;12.07;;;;;;;13.78;63.51;95475.44;5065653;28;20063;-72
2022/10/11 00:27:39;;;;;;;13.02;11.02;;;;;;;13.75;63.78;95468.69;5065673;28;20053;-72
2022/10/11 00:30:05;;;;;;;13.18;11.38;;;;;;;13.73;63.45;95460.16;5046468;28;20446;-72
2022/10/11 00:32:32;;;;;;;13.25;11.70;;;;;;;13.74;63.52;95469.66;5036300;28;20037;-72
2022/10/11 00:35:03;;;;;;;14.45;11.75;;;;;;;13.77;63.66;95469.41;5068130;28;20090;-72
2022/10/11 00:37:28;;;;;;;;;;;;;;;13.84;63.31;95478.34;5071067;28;20029;-72
2022/10/11 00:39:54;;;;;;;13.60;10.97;;;;;;;13.76;63.46;95478.22;5053674;28;20310;-72
2022/10/11 00:42:19;;;;;;;13.35;11.65;;;;;;;13.83;63.50;95473.28;5043922;28;20298;-72
2022/10/11 00:44:45;;;;;;;13.60;11.30;;;;;;;13.83;63.39;95471.47;5070400;28;20032;-72
2022/10/11 00:47:18;;;;;;;13.27;11.88;;;;;;;13.84;63.54;95469.69;5024661;28;20457;-73
2022/10/11 00:49:48;;;;;;;15.02;11.50;;;;;;;13.80;63.61;95469.13;5041927;28;20041;-72
2022/10/11 00:52:22;;;;;;;14.15;11.38;;;;;;;13.82;63.43;95467.22;5052722;28;20021;-72
2022/10/11 00:54:47;;;;;;;15.80;12.15;;;;;;;13.80;63.46;95463.91;5051755;28;20037;-72
2022/10/11 00:57:16;;;;;;;16.00;12.35;;;;;;;13.80;63.60;95458.69;5035260;28;20040;-72
2022/10/11 00:59:43;;;;;;;15.30;12.55;;;;;;;13.75;63.89;95476.53;5020701;28;20136;-72
2022/10/11 01:02:09;;;;;;;14.77;12.68;;;;;;;13.77;63.78;95463.34;5032125;28;20033;-72
2022/10/11 01:04:34;;;;;;;15.80;12.00;;;;;;;13.75;63.90;95455.66;5033263;28;20782;-72
2022/10/11 01:07:00;;;;;;;15.52;12.32;;;;;;;13.78;63.81;95463.22;5052790;28;20021;-72
2022/10/11 01:09:26;;;;;;;14.60;12.30;;;;;;;13.76;63.92;95454.72;5038854;28;20486;-72
2022/10/11 01:11:52;;;;;;;14.55;11.73;;;;;;;13.75;63.90;95460.03;5055025;28;20107;-72
2022/10/11 01:14:20;;;;;;;14.98;12.07;;;;;;;13.77;63.83;95463.34;5054194;28;20099;-72
2022/10/11 01:17:04;;;;;;;15.32;12.48;;;;;;;13.71;63.89;95459.50;5068955;28;20532;-72
2022/10/11 01:19:50;;;;;;;13.82;12.05;;;;;;;13.65;64.19;95460.00;5072097;28;20119;-72
2022/10/11 01:22:34;;;;;;;14.57;12.43;;;;;;;13.68;64.34;95453.69;5060055;28;20060;-72
2022/10/11 01:25:12;;;;;;;14.38;11.75;;;;;;;13.57;64.44;95457.22;5052320;28;20075;-72
2022/10/11 01:28:06;;;;;;;17.95;12.48;;;;;;;13.52;64.55;95454.16;5060057;28;20550;-72
2022/10/11 01:30:32;;;;;;;16.98;12.43;;;;;;;13.34;65.21;95446.91;5035345;28;20075;-72
2022/10/11 01:33:10;;;;;;;14.57;13.07;;;;;;;13.42;65.00;95451.50;5051217;28;20501;-72
2022/10/11 01:35:44;;;;;;;16.58;13.13;;;;;;;13.40;65.35;95451.63;5052758;28;20037;-72
2022/10/11 01:38:20;;;;;;;17.42;13.32;;;;;;;13.25;65.51;95442.44;5018650;28;20509;-72
2022/10/11 01:40:51;;;;;;;15.32;11.90;;;;;;;13.27;65.61;95443.19;5035207;28;20409;-72
2022/10/11 01:43:17;;;;;;;;;;;;;;;13.34;65.21;95441.69;5034443;28;20029;-72
2022/10/11 01:45:42;;;;;;;15.63;12.30;;;;;;;13.23;65.41;95440.91;5041097;28;19920;-72
2022/10/11 01:48:09;;;;;;;16.08;12.70;;;;;;;13.14;65.44;95452.94;5069249;28;20029;-72
2022/10/11 01:50:46;;;;;;;16.65;11.90;;;;;;;13.11;65.75;95453.19;5054486;28;20037;-72
2022/10/11 01:53:48;;;;;;;14.82;12.35;;;;;;;13.03;65.78;95447.78;5072477;28;20029;-72
2022/10/11 01:56:50;;;;;;;18.40;13.48;;;;;;;12.89;66.64;95443.69;5031017;28;20030;-72
2022/10/11 01:59:24;;;;;;;15.02;13.07;;;;;;;12.92;66.49;95446.06;5047738;28;20036;-72
2022/10/11 02:02:00;;;;;;;15.68;12.95;;;;;;;12.84;66.55;95444.09;5070695;28;20421;-72
2022/10/11 02:04:30;;;;;;;17.52;13.80;;;;;;;12.85;67.09;95445.75;5053465;28;20147;-72
2022/10/11 02:07:20;;;;;;;14.70;12.45;;;;;;;12.86;66.88;95444.78;5050662;28;20029;-72
2022/10/11 02:09:55;;;;;;;16.13;13.35;;;;;;;12.87;67.08;95449.06;5030614;28;20160;-72
2022/10/11 02:12:25;;;;;;;19.52;14.15;;;;;;;12.91;66.96;95444.41;5030629;28;20053;-72
2022/10/11 02:14:51;;;;;;;20.42;14.48;;;;;;;12.92;67.09;95441.66;5031190;28;20144;-72
2022/10/11 02:17:18;;;;;;;18.75;15.00;;;;;;;12.92;67.08;95431.22;5048683;28;20500;-72
2022/10/11 02:19:46;;;;;;;19.05;14.05;;;;;;;12.90;67.11;95427.94;5030376;28;20040;-72
2022/10/11 02:22:31;;;;;;;22.10;14.27;;;;;;;13.03;67.17;95438.19;5018084;28;20036;-72
2022/10/11 02:24:58;;;;;;;18.05;14.50;;;;;;;13.00;66.96;95435.81;5033938;28;20167;-72
2022/10/11 02:27:25;;;;;;;16.83;14.77;;;;;;;12.95;67.11;95427.53;5017170;28;20032;-72
2022/10/11 02:29:51;;;;;;;17.95;13.77;;;;;;;13.01;66.96;95436.63;5045644;28;20053;-72
2022/10/11 02:32:17;;;;;;;17.75;14.63;;;;;;;13.03;66.72;95432.97;5030257;28;20029;-72
2022/10/11 02:34:46;;;;;;;18.73;15.25;;;;;;;13.02;67.14;95435.72;5065099;28;20044;-72
2022/10/11 02:37:30;;;;;;;18.02;14.90;;;;;;;12.99;66.73;95431.56;5041582;28;20033;-72
2022/10/11 02:40:06;;;;;;;20.63;15.32;;;;;;;13.03;66.69;95434.75;5019944;28;20040;-72
2022/10/11 02:42:37;;;;;;;18.60;15.02;;;;;;;12.97;67.23;95434.28;5069585;28;20107;-72
2022/10/11 02:45:16;;;;;;;21.20;16.17;;;;;;;12.93;67.38;95426.88;5052737;28;20044;-72
2022/10/11 02:47:41;;;;;;;19.48;15.20;;;;;;;12.96;67.21;95435.25;5053607;28;20111;-72
2022/10/11 02:50:07;;;;;;;19.67;16.30;;;;;;;12.94;67.71;95437.16;5053234;28;20037;-72
2022/10/11 02:52:32;;;;;;;21.63;16.05;;;;;;;12.95;67.54;95431.00;5036553;28;20020;-73
2022/10/11 02:54:58;;;;;;;21.60;15.95;;;;;;;13.02;67.40;95431.31;5069608;28;20486;-72
2022/10/11 02:57:23;;;;;;;22.05;16.05;;;;;;;13.04;67.30;95429.41;5050476;28;20036;-72
2022/10/11 02:59:49;;;;;;;19.65;15.95;;;;;;;13.01;67.44;95421.00;5050698;28;20457;-72
2022/10/11 03:02:14;;;;;;;24.13;16.25;;;;;;;13.04;67.41;95421.59;5049677;28;20021;-72
2022/10/11 03:04:39;;;;;;;22.45;16.08;;;;;;;13.08;67.22;95419.53;5032436;28;20048;-73
2022/10/11 03:07:05;;;;;;;20.92;15.50;;;;;;;13.03;67.27;95412.09;5031989;28;20032;-72
2022/10/11 03:09:30;;;;;;;19.80;15.93;;;;;;;13.12;66.98;95413.97;5049594;28;20513;-72
2022/10/11 03:11:56;;;;;;;21.15;16.05;;;;;;;13.11;66.92;95414.88;5033009;28;20036;-72
2022/10/11 03:14:22;;;;;;;22.05;16.50;;;;;;;13.09;67.42;95411.59;5044615;28;20043;-72
2022/10/11 03:16:48;;;;;;;20.35;15.60;;;;;;;13.03;67.37;95412.09;5016581;28;20060;-72
2022/10/11 03:19:13;;;;;;;23.25;16.48;;;;;;;12.88;67.80;95408.97;5049411;28;20036;-72
2022/10/11 03:21:39;;;;;;;19.45;15.48;;;;;;;12.93;68.00;95416.44;5050570;28;20029;-72
2022/10/11 03:24:04;;;;;;;20.85;16.40;;;;;;;12.88;68.05;95410.78;5049355;28;20041;-72
2022/10/11 03:26:30;;;;;;;22.38;16.50;;;;;;;12.95;67.92;95411.91;5032787;28;20119;-72
2022/10/11 03:28:55;;;;;;;20.42;15.73;;;;;;;12.87;67.88;95409.09;5056958;28;20453;-72
2022/10/11 03:31:22;;;;;;;20.63;16.52;;;;;;;12.97;68.16;95415.22;5049964;28;20103;-72
2022/10/11 03:33:48;;;;;;;21.80;16.55;;;;;;;12.95;68.12;95399.72;5049411;28;20029;-72
2022/10/11 03:36:13;;;;;;;20.48;14.68;;;;;;;13.00;67.84;95403.72;5032983;28;20029;-72
2022/10/11 03:38:38;;;;;;;22.80;16.70;;;;;;;13.02;67.60;95399.19;5050467;28;20040;-72
2022/10/11 03:41:04;;;;;;;20.70;15.82;;;;;;;13.02;67.76;95397.41;5050876;28;20450;-72
2022/10/11 03:43:30;;;;;;;22.00;15.05;;;;;;;13.10;67.71;95404.59;5034729;28;20040;-72
2022/10/11 03:45:55;;;;;;;23.00;15.77;;;;;;;13.08;67.45;95390.84;5042428;28;20132;-72
2022/10/11 03:48:21;;;;;;;21.63;15.40;;;;;;;13.08;67.52;95393.47;5050340;28;20029;-72
2022/10/11 03:50:47;;;;;;;19.00;15.02;;;;;;;13.13;67.37;95397.34;5042631;28;20482;-72
2022/10/11 03:53:13;;;;;;;19.88;14.80;;;;;;;13.08;67.76;95390.84;5038981;28;20072;-72
2022/10/11 03:55:41;;;;;;;20.13;15.15;;;;;;;13.05;67.86;95396.31;5032841;28;20601;-72
2022/10/11 03:58:07;;;;;;;19.80;13.73;;;;;;;13.09;67.80;95395.09;5033025;28;20086;-72
2022/10/11 04:00:33;;;;;;;22.85;15.20;;;;;;;13.09;67.59;95395.09;5050441;28;20037;-72
2022/10/11 04:02:59;;;;;;;19.33;14.40;;;;;;;13.03;67.98;95387.78;5016440;28;20040;-72
2022/10/11 04:05:24;;;;;;;18.90;14.15;;;;;;;13.10;67.85;95386.34;5032585;28;20029;-72
2022/10/11 04:07:50;;;;;;;22.55;14.77;;;;;;;13.13;67.70;95391.31;5052070;28;20029;-72
2022/10/11 04:10:15;;;;;;;19.48;13.90;;;;;;;13.12;67.66;95390.47;5036316;28;20505;-72
2022/10/11 04:12:41;;;;;;;20.50;14.18;;;;;;;13.02;67.79;95384.38;5069520;28;20016;-72
2022/10/11 04:15:07;;;;;;;21.80;15.02;;;;;;;13.07;68.08;95389.22;5060646;28;20056;-72
2022/10/11 04:17:32;;;;;;;18.25;13.48;;;;;;;13.02;67.78;95392.19;5036102;28;20047;-72
2022/10/11 04:19:58;;;;;;;20.70;14.43;;;;;;;13.00;68.01;95388.88;5023733;28;20035;-72
2022/10/11 04:22:23;;;;;;;19.13;13.65;;;;;;;12.94;68.03;95382.41;5054855;28;20033;-72
2022/10/11 04:24:48;;;;;;;21.00;14.43;;;;;;;12.97;67.89;95386.53;5052560;28;20048;-72
2022/10/11 04:27:14;;;;;;;19.13;13.95;;;;;;;12.90;68.10;95386.22;5052483;28;20054;-72
2022/10/11 04:29:39;;;;;;;22.80;14.77;;;;;;;13.01;68.07;95397.53;5033270;28;20036;-72
2022/10/11 04:32:05;;;;;;;20.00;14.23;;;;;;;12.96;67.99;95377.06;5050040;28;20055;-72
2022/10/11 04:34:30;;;;;;;21.70;14.45;;;;;;;13.08;67.78;95394.28;5053622;28;20086;-72
2022/10/11 04:36:56;;;;;;;17.42;13.63;;;;;;;13.05;67.87;95383.28;5052365;28;20029;-72
2022/10/11 04:39:21;;;;;;;20.30;12.90;;;;;;;13.00;68.17;95395.88;5035442;28;20585;-72
2022/10/11 04:41:47;;;;;;;19.95;13.60;;;;;;;12.85;68.66;95400.59;5052312;28;20036;-72
2022/10/11 04:44:12;;;;;;;20.95;13.98;;;;;;;12.82;68.81;95393.84;5035586;28;20025;-72
2022/10/11 04:46:37;;;;;;;18.30;13.27;;;;;;;12.88;68.75;95402.94;5043806;28;20486;-72
2022/10/11 04:49:03;;;;;;;18.73;13.18;;;;;;;12.94;68.67;95392.81;5052039;28;20028;-73
2022/10/11 04:51:29;;;;;;;21.40;13.50;;;;;;;12.93;68.80;95391.19;5031884;28;20030;-72
2022/10/11 04:53:54;;;;;;;20.25;13.38;;;;;;;12.90;68.80;95391.44;5032108;28;20021;-72
2022/10/11 04:56:20;;;;;;;18.52;13.18;;;;;;;12.91;68.75;95400.09;5032153;28;20033;-72
2022/10/11 04:58:50;;;;;;;18.58;12.90;;;;;;;12.90;68.80;95391.44;5065969;28;20505;-72
2022/10/11 05:01:16;;;;;;;20.92;12.63;;;;;;;12.94;68.73;95387.59;5069951;28;20094;-72
2022/10/11 05:03:41;;;;;;;20.10;13.38;;;;;;;13.02;68.63;95389.59;5035374;28;20029;-72
2022/10/11 05:06:07;;;;;;;19.77;12.68;;;;;;;13.09;68.32;95392.50;5035308;28;20056;-72
2022/10/11 05:08:32;;;;;;;20.30;12.68;;;;;;;13.01;68.57;95392.31;5053031;28;20102;-72
2022/10/11 05:11:02;;;;;;;16.80;11.38;;;;;;;13.06;68.14;95398.78;5051943;28;20065;-72
2022/10/11 05:13:28;;;;;;;18.37;12.47;;;;;;;13.03;68.25;95393.84;5051721;28;20040;-72
2022/10/11 05:15:53;;;;;;;18.38;11.63;;;;;;;13.05;68.22;95391.13;5018866;28;20037;-72
2022/10/11 05:18:19;;;;;;;18.50;12.45;;;;;;;13.11;68.13;95393.19;5034909;28;20041;-72
2022/10/11 05:20:44;;;;;;;18.25;12.85;;;;;;;13.10;68.25;95396.78;5035121;28;20033;-72
2022/10/11 05:23:10;;;;;;;16.50;11.65;;;;;;;13.17;68.03;95400.50;5034833;28;20033;-72
2022/10/11 05:25:35;;;;;;;17.33;11.48;;;;;;;13.22;67.86;95400.94;5041756;28;20051;-72
2022/10/11 05:28:01;;;;;;;17.67;12.02;;;;;;;13.23;67.68;95397.38;5065050;28;20402;-72
2022/10/11 05:30:26;;;;;;;17.92;11.88;;;;;;;13.28;67.31;95405.69;5057044;28;20131;-72
2022/10/11 05:32:51;;;;;;;16.33;10.95;;;;;;;13.24;67.12;95391.22;5052442;28;20147;-72
2022/10/11 05:35:17;;;;;;;17.25;10.45;;;;;;;13.32;66.95;95411.50;5018159;28;20040;-72
2022/10/11 05:37:42;;;;;;;14.75;10.45;;;;;;;13.28;66.78;95410.09;5052475;28;20028;-72
2022/10/11 05:40:09;;;;;;;14.40;10.23;;;;;;;13.19;66.77;95401.22;5050842;28;20044;-72
2022/10/11 05:42:35;;;;;;;15.23;10.18;;;;;;;13.24;66.51;95408.66;5071027;28;20104;-72
2022/10/11 05:45:01;;;;;;;13.57;9.57;;;;;;;13.28;66.46;95407.47;5070766;28;20524;-72
2022/10/11 05:47:26;;;;;;;19.45;12.90;;;;;;;13.30;66.36;95409.00;5060590;28;20024;-72
2022/10/11 05:49:51;;;;;;;14.95;11.20;;;;;;;13.20;66.69;95408.06;5040207;28;20045;-72
2022/10/11 05:52:20;;;;;;;15.35;10.68;;;;;;;13.36;66.21;95424.13;5050844;28;20021;-72
2022/10/11 05:54:46;;;;;;;14.10;9.65;;;;;;;13.34;66.06;95417.38;5065450;28;20036;-72
2022/10/11 05:57:12;;;;;;;16.35;10.25;;;;;;;13.37;66.04;95419.72;5040615;28;20025;-72
2022/10/11 05:59:37;;;;;;;17.25;10.65;;;;;;;13.36;66.20;95413.69;5071876;28;20544;-72
2022/10/11 06:02:03;;;;;;;17.13;11.50;;;;;;;13.26;67.03;95422.41;5053649;28;20017;-72
2022/10/11 06:04:28;;;;;;;16.63;11.30;;;;;;;13.32;66.72;95422.75;5052275;28;20036;-72
2022/10/11 06:06:53;;;;;;;14.27;10.90;;;;;;;13.39;66.56;95410.00;5051491;28;20529;-72
2022/10/11 06:09:19;;;;;;;17.13;11.20;;;;;;;13.36;65.88;95413.69;5030108;28;20048;-72
2022/10/11 06:11:45;;;;;;;14.18;11.10;;;;;;;13.39;66.25;95405.59;5047216;28;20033;-72
2022/10/11 06:14:10;;;;;;;15.52;11.25;;;;;;;13.45;66.38;95395.59;5050489;28;20107;-72
2022/10/11 06:16:36;;;;;;;16.02;11.82;;;;;;;13.50;66.30;95389.03;5050403;28;20047;-72
2022/10/11 06:19:02;;;;;;;18.48;12.68;;;;;;;13.57;66.52;95395.41;5042462;28;20233;-72
2022/10/11 06:21:27;;;;;;;18.80;13.07;;;;;;;13.66;66.14;95396.38;5036862;28;20036;-73
2022/10/11 06:23:52;;;;;;;20.13;13.15;;;;;;;13.72;66.11;95397.66;5070382;28;20559;-72
2022/10/11 06:26:18;;;;;;;17.92;12.60;;;;;;;13.73;65.90;95399.28;5067534;28;20036;-72
2022/10/11 06:28:43;;;;;;;21.25;12.93;;;;;;;13.75;66.15;95407.81;5033762;28;20052;-72
2022/10/11 06:31:09;;;;;;;18.38;11.95;;;;;;;13.85;65.66;95419.97;5049649;28;20052;-72
2022/10/11 06:33:35;;;;;;;17.75;11.23;;;;;;;13.86;65.87;95413.75;5033552;28;20025;-72
2022/10/11 06:36:03;;;;;;;18.10;12.38;;;;;;;13.95;65.86;95408.72;5050319;28;20032;-72
2022/10/11 06:38:29;;;;;;;19.15;12.57;;;;;;;13.99;65.75;95407.50;5053620;28;20501;-72
2022/10/11 06:40:54;;;;;;;20.58;13.57;;;;;;;13.95;66.01;95401.69;5070106;28;20038;-72
2022/10/11 06:43:20;;;;;;;18.20;13.02;;;;;;;14.05;65.78;95412.19;5053384;28;20098;-72
2022/10/11 06:45:45;;;;;;;19.83;13.82;;;;;;;14.07;65.33;95418.09;5053448;28;20116;-72
2022/10/11 06:48:11;;;;;;;16.85;11.55;;;;;;;14.03;64.55;95432.38;5071164;28;20024;-72
2022/10/11 06:50:37;;;;;;;15.68;11.63;;;;;;;14.06;64.53;95432.94;5053357;28;20040;-72
2022/10/11 06:53:03;;;;;;;19.88;12.45;;;;;;;14.08;65.05;95430.19;5048122;28;20035;-73
2022/10/11 06:55:30;;;;;;;21.80;12.95;;;;;;;14.13;65.71;95446.31;5052877;28;20032;-73
2022/10/11 06:57:55;;;;;;;20.08;12.90;;;;;;;14.14;65.68;95439.28;5048995;28;20035;-73
2022/10/11 07:00:21;;;;;;;18.17;11.60;;;;;;;14.16;65.32;95417.28;5067806;28;20028;-74
2022/10/11 07:02:47;;;;;;;17.33;11.38;;;;;;;14.18;64.51;95417.16;5055243;28;20025;-74
2022/10/11 07:05:12;;;;;;;15.55;11.23;;;;;;;14.21;64.30;95419.53;5033238;28;20047;-76
2022/10/11 07:07:38;;;;;;;17.60;10.93;;;;;;;14.17;63.73;95408.47;5041499;28;20028;-76
2022/10/11 07:10:03;;;;;;;15.75;10.63;;;;;;;14.23;64.03;95407.94;5054888;28;20036;-75
2022/10/11 07:12:29;;;;;;;18.05;11.93;;;;;;;14.26;64.18;95415.53;5061468;28;20021;-75
2022/10/11 07:14:54;;;;;;;14.93;10.85;;;;;;;14.28;63.78;95413.59;5051352;28;20036;-75
2022/10/11 07:17:20;;;;;;;14.40;10.48;;;;;;;14.34;63.70;95424.47;5049593;28;20029;-75
2022/10/11 07:19:46;;;;;;;15.02;10.80;;;;;;;14.33;64.11;95426.25;5051266;28;20029;-74
2022/10/11 07:22:11;;;;;;;14.05;10.38;;;;;;;14.10;63.34;95420.44;5029418;28;20033;-74
2022/10/11 07:24:37;;;;;;;15.05;11.35;;;;;;;14.13;63.57;95430.63;5033506;28;20460;-74
2022/10/11 07:27:02;;;;;;;13.60;10.18;;;;;;;14.09;63.65;95432.66;5051817;28;20032;-74
2022/10/11 07:29:28;;;;;;;17.35;11.40;;;;;;;14.06;63.99;95421.66;5050849;28;20371;-74
2022/10/11 07:31:53;;;;;;;14.95;10.10;;;;;;;14.14;63.82;95429.66;5050641;28;20410;-73
2022/10/11 07:34:21;;;;;;;13.90;10.63;;;;;;;14.18;63.51;95424.97;5033788;28;20506;-73
2022/10/11 07:36:47;;;;;;;15.75;11.73;;;;;;;14.14;63.67;95413.97;5046178;28;20036;-73
2022/10/11 07:39:12;;;;;;;13.85;10.18;;;;;;;14.02;63.96;95428.94;5068994;28;20418;-75
2022/10/11 07:41:38;;;;;;;16.58;11.73;;;;;;;14.11;64.08;95421.28;5035589;28;20025;-75
2022/10/11 07:44:03;;;;;;;16.00;11.23;;;;;;;14.17;64.34;95418.13;5070130;28;20029;-75
2022/10/11 07:46:29;;;;;;;15.65;11.02;;;;;;;14.14;63.93;95413.16;5053247;28;20041;-75
2022/10/11 07:48:55;;;;;;;15.38;10.93;;;;;;;14.12;63.77;95421.13;5053305;28;20029;-75
2022/10/11 07:51:21;;;;;;;15.20;10.95;;;;;;;13.99;63.73;95415.34;5020209;28;20406;-75
2022/10/11 07:53:48;;;;;;;13.68;10.70;;;;;;;14.06;63.46;95408.59;5028554;28;20060;-75
2022/10/11 07:56:15;;;;;;;13.85;10.18;;;;;;;14.07;63.68;95421.53;5056189;28;20071;-75
2022/10/11 07:58:41;;;;;;;14.63;10.02;;;;;;;14.15;63.19;95407.81;5039843;28;20095;-75
2022/10/11 08:01:07;;;;;;;15.32;10.63;;;;;;;14.20;63.11;95413.44;5056351;28;20070;-75
2022/10/11 08:03:32;;;;;;;13.93;10.75;;;;;;;14.22;63.36;95427.19;5057955;28;20035;-75
2022/10/11 08:06:01;;;;;;;15.50;10.88;;;;;;;14.26;63.68;95422.53;5036495;28;20406;-75
2022/10/11 08:08:27;;;;;;;15.68;10.68;;;;;;;14.24;63.52;95408.78;5052908;28;20029;-75
2022/10/11 08:10:52;;;;;;;16.42;12.05;;;;;;;14.38;63.33;95431.91;5054428;28;20029;-75
2022/10/11 08:13:18;;;;;;;15.15;11.02;;;;;;;14.45;63.52;95434.81;5052984;28;20029;-75
2022/10/11 08:15:43;;;;;;;16.23;11.52;;;;;;;14.52;63.44;95434.16;5052934;28;20025;-75
2022/10/11 08:18:09;;;;;;;16.50;11.60;;;;;;;14.60;63.41;95438.72;5053115;28;20106;-75
2022/10/11 08:20:37;;;;;;;17.20;11.20;;;;;;;14.68;63.10;95444.09;5036108;28;20033;-75
2022/10/11 08:23:03;;;;;;;17.30;11.00;;;;;;;14.69;62.62;95440.50;5052279;28;20139;-75
2022/10/11 08:25:28;;;;;;;15.95;11.60;;;;;;;14.69;62.91;95437.88;5034911;28;20518;-76
2022/10/11 08:27:54;;;;;;;15.98;11.20;;;;;;;14.76;62.48;95427.69;5035948;28;20095;-75
2022/10/11 08:30:19;;;;;;;15.80;11.00;;;;;;;14.85;61.80;95439.13;5035654;28;20486;-77
2022/10/11 08:32:45;;;;;;;16.08;11.15;;;;;;;14.91;62.06;95439.41;5019337;28;20025;-75
2022/10/11 08:35:10;;;;;;;18.55;11.93;;;;;;;14.98;61.94;95439.66;5052411;28;20041;-75
2022/10/11 08:37:35;;;;;;;17.67;11.80;;;;;;;15.07;61.82;95431.00;5052392;28;20479;-75
2022/10/11 08:40:02;;;;;;;16.25;11.80;;;;;;;15.12;61.49;95430.56;5035646;28;20060;-75
2022/10/11 08:42:30;;;;;;;17.20;11.73;;;;;;;15.21;61.72;95419.28;5035861;28;20052;-75
2022/10/11 08:45:03;;;;;;;18.80;13.02;;;;;;;15.30;61.54;95425.47;5052314;28;20036;-75
2022/10/11 08:47:36;;;;;;;18.15;12.13;;;;;;;15.37;61.56;95424.72;5019496;28;20147;-76
2022/10/11 08:50:03;;;;;;;16.13;12.25;;;;;;;15.35;61.27;95418.84;5036000;28;20076;-75
2022/10/11 08:52:44;;;;;;;16.58;11.75;;;;;;;15.44;61.19;95432.03;5035530;28;20033;-76
2022/10/11 08:55:36;;;;;;;17.63;12.00;;;;;;;15.40;60.85;95426.25;5035488;28;20025;-75
2022/10/11 08:58:01;;;;;;;15.48;11.57;;;;;;;15.44;60.64;95424.19;5036273;28;20067;-78
2022/10/11 09:00:29;;;;;;;16.05;12.02;;;;;;;15.57;60.43;95425.53;5035375;28;20036;-77
2022/10/11 09:03:24;;;;;;;15.50;11.70;;;;;;;15.63;60.25;95424.94;5035555;28;20111;-74
2022/10/11 09:06:04;;;;;;;14.15;10.93;;;;;;;15.62;60.29;95419.84;5051843;28;20040;-74
2022/10/11 09:08:39;;;;;;;;;;;;;;;15.71;59.77;95420.81;5053477;28;20498;-74
2022/10/11 09:11:28;;;;;;;15.20;11.73;;;;;;;15.67;58.96;95408.94;5052865;28;19917;-74
2022/10/11 09:14:20;;;;;;;14.05;11.15;;;;;;;15.77;59.59;95422.88;5038305;28;20032;-74
2022/10/11 09:17:02;;;;;;;13.82;10.55;;;;;;;15.84;58.41;95418.69;5051680;28;20072;-74
2022/10/11 09:19:35;;;;;;;16.27;10.88;;;;;;;15.67;58.78;95407.16;5051432;28;20124;-74
2022/10/11 09:22:03;;;;;;;15.32;11.80;;;;;;;15.70;58.81;95421.78;5051607;28;20032;-74
2022/10/11 09:24:46;;;;;;;14.93;11.18;;;;;;;15.77;59.20;95417.63;5052620;28;20053;-73
2022/10/11 09:27:22;;;;;;;14.18;10.65;;;;;;;15.82;58.71;95412.75;5052712;28;20036;-73
2022/10/11 09:30:14;;;;;;;13.10;10.88;;;;;;;15.88;58.60;95422.69;5018803;28;20112;-73
2022/10/11 09:32:45;;;;;;;14.98;11.68;;;;;;;15.91;58.86;95416.31;5051407;28;20414;-73
2022/10/11 09:35:14;;;;;;;;;;;;;;;15.85;58.25;95422.94;5035347;28;20033;-73
2022/10/11 09:38:10;;;;;;;13.50;10.85;;;;;;;15.79;58.99;95413.88;5034615;28;19962;-73
2022/10/11 09:41:09;;;;;;;13.75;10.20;;;;;;;15.82;58.72;95410.13;5034611;28;20430;-75
2022/10/11 09:43:34;;;;;;;13.05;10.50;;;;;;;15.89;59.06;95413.84;5051124;28;20032;-73
2022/10/11 09:46:00;;;;;;;14.77;11.10;;;;;;;15.92;58.77;95410.94;5051182;28;20107;-74
2022/10/11 09:48:32;;;;;;;16.33;11.20;;;;;;;16.05;59.43;95410.59;5051081;28;20029;-74
2022/10/11 09:51:01;;;;;;;14.43;11.40;;;;;;;16.16;58.30;95409.56;5035339;28;20120;-74
2022/10/11 09:53:56;;;;;;;15.73;11.00;;;;;;;16.27;58.14;95412.00;5050924;28;20028;-71
2022/10/11 09:56:22;;;;;;;15.52;11.75;;;;;;;16.31;57.47;95389.75;5051054;28;20079;-73
2022/10/11 09:58:48;;;;;;;14.80;11.45;;;;;;;16.35;57.08;95406.00;5034374;28;20025;-73
2022/10/11 10:01:23;;;;;;;16.05;11.82;;;;;;;16.38;57.13;95396.06;5052358;28;20544;-73
2022/10/11 10:04:03;;;;;;;13.98;10.95;;;;;;;16.48;57.18;95393.34;5051400;28;20021;-73
2022/10/11 10:06:28;;;;;;;14.85;11.27;;;;;;;16.54;56.37;95398.81;5035892;28;20060;-73
2022/10/11 10:08:54;;;;;;;14.07;11.35;;;;;;;16.58;56.95;95386.25;5050724;28;20483;-76
2022/10/11 10:11:20;;;;;;;13.57;10.32;;;;;;;16.56;55.92;95384.75;5052140;28;20033;-74
2022/10/11 10:13:46;;;;;;;14.02;10.48;;;;;;;16.60;56.39;95386.09;5034035;28;20402;-73
2022/10/11 10:16:31;;;;;;;15.40;11.15;;;;;;;16.63;56.94;95380.53;5050683;28;20033;-73
2022/10/11 10:18:57;;;;;;;15.65;10.93;;;;;;;16.71;56.84;95377.97;5033959;28;20036;-73
2022/10/11 10:21:33;;;;;;;13.70;10.90;;;;;;;16.78;56.31;95380.88;5051932;28;20399;-73
2022/10/11 10:24:02;;;;;;;13.65;11.52;;;;;;;16.73;55.46;95378.66;5050294;28;20029;-72
2022/10/11 10:26:28;;;;;;;13.77;11.70;;;;;;;16.70;56.28;95371.09;5017807;28;20047;-72
2022/10/11 10:28:59;;;;;;;14.45;10.90;;;;;;;16.79;56.39;95372.84;5033730;28;20141;-72
2022/10/11 10:31:52;;;;;;;14.02;10.77;;;;;;;16.89;56.10;95380.63;5051194;28;20103;-72
2022/10/11 10:34:26;;;;;;;17.15;10.40;;;;;;;16.90;55.86;95361.28;5049084;28;20502;-72
2022/10/11 10:37:07;;;;;;;13.27;11.10;;;;;;;16.92;55.55;95365.41;5034258;28;20411;-73
2022/10/11 10:39:45;;;;;;;14.50;11.23;;;;;;;17.00;55.79;95366.47;5050018;28;20100;-72
2022/10/11 10:42:16;;;;;;;14.60;11.60;;;;;;;17.10;56.04;95375.03;5033809;28;20035;-72
2022/10/11 10:44:42;;;;;;;14.43;11.82;;;;;;;17.02;55.23;95348.72;5033538;28;20036;-72
2022/10/11 10:47:19;;;;;;;15.13;10.65;;;;;;;17.18;54.97;95361.97;5016934;28;20082;-72
2022/10/11 10:50:34;;;;;;;16.52;11.10;;;;;;;17.27;55.07;95358.41;5051493;28;20067;-72
2022/10/11 10:53:11;;;;;;;15.10;11.20;;;;;;;17.34;54.69;95359.44;5031345;28;20137;-72
2022/10/11 10:55:37;;;;;;;12.65;10.35;;;;;;;17.32;53.84;95348.28;5051292;28;20069;-73
2022/10/11 10:58:05;;;;;;;14.85;11.25;;;;;;;17.33;54.48;95351.75;5049825;28;20029;-73
2022/10/11 11:00:50;;;;;;;14.82;11.25;;;;;;;17.38;54.77;95345.06;5033208;28;20072;-72
2022/10/11 11:03:34;;;;;;;18.13;11.43;;;;;;;17.12;54.93;95352.91;5033327;28;20057;-73
2022/10/11 11:06:07;;;;;;;15.85;11.95;;;;;;;17.07;55.54;95339.41;5032988;28;20168;-73
2022/10/11 11:08:54;;;;;;;15.80;11.93;;;;;;;17.21;54.91;95345.91;5033978;28;20083;-72
2022/10/11 11:11:38;;;;;;;13.40;10.65;;;;;;;17.08;55.31;95340.28;5033147;28;20204;-72
2022/10/11 11:14:16;;;;;;;17.00;11.45;;;;;;;17.20;55.09;95341.66;5050784;28;20565;-72
2022/10/11 11:16:47;;;;;;;14.90;11.25;;;;;;;17.28;54.49;95341.69;5050578;28;20028;-72
2022/10/11 11:19:22;;;;;;;14.38;11.38;;;;;;;17.36;54.39;95336.50;5049521;28;20503;-72
2022/10/11 11:22:09;;;;;;;14.25;11.43;;;;;;;17.43;54.23;95323.56;5050685;28;20029;-72
2022/10/11 11:25:12;;;;;;;12.15;10.50;;;;;;;17.47;53.76;95331.94;5049748;28;20045;-72
2022/10/11 11:27:50;;;;;;;14.68;11.73;;;;;;;17.52;54.09;95333.09;5050683;28;20037;-72
2022/10/11 11:30:28;;;;;;;15.75;11.55;;;;;;;17.54;53.93;95322.47;5032580;28;20049;-72